Time;durP1;ratioP1;P1;durP2;ratioP2;P2;SDS_P1;SDS_P2;PMS_P1;PMS_P2;Temp;Humidity;BMP_temperature;BMP_pressure;BME280_temperature;BME280_humidity;BME280_pressure;Samples;Min_cycle;Max_cycle;Signal;HPM_P1;HPM_P2
2022/05/25 00:00:45;;;;;;;3.73;0.83;;;;;;;19.10;50.92;97170.28;5051780;28;20437;-70
2022/05/25 00:03:10;;;;;;;7.67;1.10;;;;;;;19.12;50.47;97175.38;5058725;28;20187;-71
2022/05/25 00:05:37;;;;;;;17.03;1.80;;;;;;;19.00;51.11;97165.41;5051776;28;20971;-71
2022/05/25 00:08:04;;;;;;;5.37;1.07;;;;;;;19.07;51.21;97168.03;5050470;28;20281;-70
2022/05/25 00:10:29;;;;;;;1.77;1.07;;;;;;;19.15;51.34;97178.44;5058744;28;21012;-71
2022/05/25 00:12:55;;;;;;;3.30;1.00;;;;;;;19.25;51.17;97171.91;5051796;28;20433;-70
2022/05/25 00:15:21;;;;;;;1.20;0.87;;;;;;;19.30;51.09;97164.94;5051204;28;20217;-71
2022/05/25 00:17:47;;;;;;;1.13;0.80;;;;;;;19.33;50.90;97161.03;5051386;28;20265;-71
2022/05/25 00:20:13;;;;;;;2.17;0.80;;;;;;;19.38;50.71;97160.41;5051581;28;20203;-70
2022/05/25 00:22:49;;;;;;;1.83;0.90;;;;;;;19.35;50.75;97161.63;5045114;28;20812;-71
2022/05/25 00:25:19;;;;;;;1.00;0.80;;;;;;;19.34;50.42;97160.81;5051342;28;20305;-70
2022/05/25 00:27:44;;;;;;;2.60;0.70;;;;;;;19.26;50.74;97153.06;5051024;28;20436;-72
2022/05/25 00:30:10;;;;;;;2.00;0.90;;;;;;;19.22;50.49;97156.38;5043408;28;20856;-71
2022/05/25 00:32:36;;;;;;;2.87;1.13;;;;;;;19.07;51.03;97165.38;5058074;28;20665;-71
2022/05/25 00:35:03;;;;;;;5.43;0.90;;;;;;;18.92;51.46;97178.88;5050086;28;20425;-71
2022/05/25 00:37:28;;;;;;;1.33;0.80;;;;;;;18.76;52.12;97161.53;5058942;28;20619;-70
2022/05/25 00:39:54;;;;;;;1.83;0.90;;;;;;;18.86;52.17;97167.25;5051995;28;20460;-71
2022/05/25 00:42:20;;;;;;;6.03;0.90;;;;;;;18.94;51.86;97166.25;5051640;28;20696;-71
2022/05/25 00:44:46;;;;;;;1.20;1.00;;;;;;;18.79;52.29;97174.38;5051314;28;20252;-71
2022/05/25 00:47:14;;;;;;;5.70;0.97;;;;;;;18.85;52.25;97176.22;5050694;28;20457;-72
2022/05/25 00:49:39;;;;;;;2.50;0.90;;;;;;;18.84;51.47;97179.06;5050118;28;20700;-71
2022/05/25 00:52:11;;;;;;;1.30;0.80;;;;;;;18.90;50.96;97180.13;5049584;28;20426;-71
2022/05/25 00:54:49;;;;;;;1.07;0.90;;;;;;;18.93;50.72;97183.16;5054938;28;20201;-71
2022/05/25 00:57:23;;;;;;;1.00;0.80;;;;;;;18.81;51.58;97176.84;5051981;28;20437;-72
2022/05/25 01:00:04;;;;;;;2.87;0.90;;;;;;;18.64;52.41;97179.91;5050052;28;20454;-72
2022/05/25 01:02:31;;;;;;;2.00;0.90;;;;;;;18.69;52.44;97189.91;5049922;28;20425;-70
2022/05/25 01:04:57;;;;;;;1.87;0.90;;;;;;;18.63;52.66;97186.25;5057433;28;20424;-70
2022/05/25 01:07:50;;;;;;;2.17;0.77;;;;;;;18.61;52.66;97187.47;5048765;28;20433;-70
2022/05/25 01:10:18;;;;;;;5.80;1.30;;;;;;;18.68;52.56;97183.78;5048126;28;20268;-72
2022/05/25 01:12:49;;;;;;;2.27;1.00;;;;;;;18.76;52.30;97190.75;5050641;28;20436;-70
2022/05/25 01:15:27;;;;;;;3.80;0.70;;;;;;;18.65;52.15;97189.50;5049551;28;20433;-71
2022/05/25 01:18:12;;;;;;;2.40;0.80;;;;;;;18.60;52.25;97191.13;5049891;28;20428;-72
2022/05/25 01:21:06;;;;;;;2.90;0.97;;;;;;;18.66;51.46;97200.94;5044475;28;20444;-72
2022/05/25 01:23:34;;;;;;;2.53;0.93;;;;;;;18.45;50.83;97197.47;5049641;28;20479;-71
2022/05/25 01:26:06;;;;;;;1.17;0.80;;;;;;;18.49;50.96;97200.50;5049200;28;20519;-71
2022/05/25 01:28:56;;;;;;;1.10;0.87;;;;;;;18.55;50.18;97200.53;5043394;28;20825;-71
2022/05/25 01:31:24;;;;;;;1.27;0.87;;;;;;;18.64;50.05;97203.78;5051697;28;20489;-71
2022/05/25 01:33:56;;;;;;;1.40;0.77;;;;;;;18.66;50.51;97206.22;5054454;28;20955;-71
2022/05/25 01:36:26;;;;;;;1.20;0.83;;;;;;;18.57;50.24;97198.47;5062465;28;20441;-71
2022/05/25 01:38:59;;;;;;;1.80;0.80;;;;;;;18.56;50.22;97201.34;5050919;28;20919;-69
2022/05/25 01:41:34;;;;;;;2.10;1.10;;;;;;;18.55;50.02;97203.19;5050583;28;20491;-71
2022/05/25 01:44:07;;;;;;;1.87;0.80;;;;;;;18.52;50.39;97197.47;5054809;28;20436;-70
2022/05/25 01:46:46;;;;;;;1.10;1.00;;;;;;;18.49;49.97;97195.22;5048724;28;20453;-71
2022/05/25 01:49:16;;;;;;;2.90;0.90;;;;;;;18.41;50.34;97202.34;5048693;28;20429;-71
2022/05/25 01:51:54;;;;;;;1.33;0.97;;;;;;;18.49;50.23;97211.97;5049113;28;20468;-71
2022/05/25 01:54:23;;;;;;;2.50;0.80;;;;;;;18.63;49.70;97207.47;5049266;28;20429;-70
2022/05/25 01:56:51;;;;;;;5.00;0.93;;;;;;;18.51;49.62;97204.63;5048910;28;20476;-70
2022/05/25 01:59:19;;;;;;;1.23;0.80;;;;;;;18.51;51.32;97206.44;5049168;28;20439;-70
2022/05/25 02:04:43;;;;;;;3.90;1.10;;;;;;;18.66;50.90;97217.69;5044477;28;20421;-70
2022/05/25 02:07:08;;;;;;;3.70;0.80;;;;;;;18.56;50.79;97206.66;5058061;28;20909;-69
2022/05/25 02:09:46;;;;;;;5.17;0.90;;;;;;;18.56;50.41;97211.97;5049438;28;20520;-69
2022/05/25 02:12:23;;;;;;;1.00;0.80;;;;;;;18.47;51.28;97216.66;5056071;28;20236;-70
2022/05/25 02:15:07;;;;;;;4.03;1.00;;;;;;;18.50;51.20;97224.22;5050570;28;20428;-70
2022/05/25 02:17:41;;;;;;;0.90;0.70;;;;;;;18.48;51.73;97212.97;5047199;28;20424;-70
2022/05/25 02:20:10;;;;;;;2.30;1.00;;;;;;;18.25;52.79;97208.88;5056941;28;20475;-70
2022/05/25 02:22:43;;;;;;;1.00;0.90;;;;;;;18.13;53.58;97215.78;5034474;28;20434;-71
2022/05/25 02:25:22;;;;;;;2.03;1.10;;;;;;;18.20;53.80;97211.28;5053694;28;20461;-71
2022/05/25 02:27:52;;;;;;;2.10;0.90;;;;;;;18.21;53.80;97212.94;5052195;28;20483;-71
2022/05/25 02:30:20;;;;;;;1.90;0.90;;;;;;;18.14;53.48;97198.84;5052201;28;20449;-70
2022/05/25 02:32:51;;;;;;;1.50;0.80;;;;;;;18.01;53.75;97202.28;5058672;28;20440;-71
2022/05/25 02:35:18;;;;;;;0.97;0.77;;;;;;;18.02;53.88;97211.88;5058206;28;20452;-70
2022/05/25 02:37:43;;;;;;;4.07;1.13;;;;;;;18.03;54.11;97212.66;5051910;28;20463;-70
2022/05/25 02:40:10;;;;;;;3.13;1.13;;;;;;;18.09;53.71;97217.19;5053636;28;20453;-71
2022/05/25 02:42:40;;;;;;;1.00;0.90;;;;;;;18.06;53.55;97213.13;5053603;28;20183;-71
2022/05/25 02:45:06;;;;;;;1.20;0.80;;;;;;;18.00;53.91;97218.41;5053038;28;20483;-72
2022/05/25 02:47:33;;;;;;;1.10;0.87;;;;;;;17.82;54.00;97222.38;5051742;28;20479;-71
2022/05/25 02:49:58;;;;;;;2.60;0.90;;;;;;;17.81;54.06;97220.72;5053295;28;20468;-71
2022/05/25 02:52:24;;;;;;;1.20;0.83;;;;;;;17.75;54.50;97216.25;5053080;28;20919;-71
2022/05/25 02:54:50;;;;;;;1.70;0.90;;;;;;;17.78;53.94;97221.97;5053345;28;20717;-72
2022/05/25 02:57:17;;;;;;;13.63;1.10;;;;;;;17.84;54.28;97220.34;5052513;28;20198;-71
2022/05/25 02:59:43;;;;;;;5.30;1.13;;;;;;;17.90;54.00;97232.00;5051820;28;20477;-72
2022/05/25 03:02:08;;;;;;;2.33;1.00;;;;;;;17.90;53.47;97235.44;5059341;28;20895;-71
2022/05/25 03:04:37;;;;;;;1.30;0.80;;;;;;;17.86;53.94;97236.88;5051913;28;20230;-71
2022/05/25 03:07:03;;;;;;;0.90;0.80;;;;;;;17.85;53.76;97250.31;5052328;28;20221;-71
2022/05/25 03:09:29;;;;;;;2.00;1.10;;;;;;;17.83;54.79;97244.41;5051574;28;20596;-71
2022/05/25 03:11:55;;;;;;;1.70;0.93;;;;;;;17.84;54.78;97235.41;5051624;28;20530;-72
2022/05/25 03:14:20;;;;;;;1.40;0.90;;;;;;;17.84;54.75;97236.25;5052670;28;20237;-72
2022/05/25 03:16:46;;;;;;;1.60;1.10;;;;;;;17.81;54.47;97241.94;5051061;28;20426;-70
2022/05/25 03:19:11;;;;;;;1.43;0.90;;;;;;;17.74;54.39;97236.63;5052729;28;20385;-71
2022/05/25 03:21:37;;;;;;;3.63;1.23;;;;;;;17.72;54.79;97233.34;5052681;28;20207;-72
2022/05/25 03:24:02;;;;;;;2.67;0.80;;;;;;;17.75;54.57;97237.44;5044767;28;20184;-71
2022/05/25 03:26:28;;;;;;;3.90;1.20;;;;;;;17.75;53.40;97237.44;5043906;28;20210;-71
2022/05/25 03:28:53;;;;;;;1.10;0.87;;;;;;;17.73;53.64;97244.78;5046281;28;20197;-73
2022/05/25 03:31:19;;;;;;;1.53;0.80;;;;;;;17.60;52.08;97250.81;5070607;28;20222;-71
2022/05/25 03:33:44;;;;;;;1.30;1.07;;;;;;;17.55;53.03;97246.09;5057123;28;20186;-72
2022/05/25 03:36:10;;;;;;;1.57;1.10;;;;;;;17.55;54.43;97256.69;5066314;28;20194;-72
2022/05/25 03:38:36;;;;;;;4.30;1.17;;;;;;;17.61;55.28;97263.03;5058624;28;20198;-70
2022/05/25 03:41:02;;;;;;;2.20;1.00;;;;;;;17.67;55.31;97262.28;5069441;28;20206;-71
2022/05/25 03:43:35;;;;;;;2.20;1.00;;;;;;;17.57;55.58;97261.81;5057348;28;20973;-71
2022/05/25 03:46:01;;;;;;;2.00;1.00;;;;;;;17.50;55.75;97267.09;5070587;28;20316;-72
2022/05/25 03:48:27;;;;;;;1.20;0.87;;;;;;;17.56;55.03;97261.00;5071848;28;20433;-71
2022/05/25 03:50:52;;;;;;;2.13;1.00;;;;;;;17.47;54.92;97262.16;5061924;28;20457;-70
2022/05/25 03:53:18;;;;;;;2.90;1.10;;;;;;;17.58;54.59;97274.88;5070416;28;20495;-71
2022/05/25 03:55:44;;;;;;;1.77;1.10;;;;;;;17.62;53.79;97276.13;5069033;28;20257;-71
2022/05/25 03:58:10;;;;;;;2.97;1.30;;;;;;;17.57;53.96;97286.47;5054822;28;20179;-71
2022/05/25 04:00:36;;;;;;;3.70;1.47;;;;;;;17.60;53.89;97287.91;5065081;28;20467;-71
2022/05/25 04:03:03;;;;;;;3.03;1.70;;;;;;;17.60;53.75;97283.44;5071447;28;20187;-71
2022/05/25 04:05:30;;;;;;;3.33;2.50;;;;;;;17.60;53.14;97288.75;5072010;28;20555;-70
2022/05/25 04:07:58;;;;;;;7.50;5.90;;;;;;;17.52;53.77;97301.31;5060909;28;20440;-72
2022/05/25 04:10:24;;;;;;;10.93;6.50;;;;;;;17.52;53.97;97299.47;5063349;28;20494;-71
2022/05/25 04:12:50;;;;;;;6.23;2.43;;;;;;;17.50;53.36;97298.88;5069433;28;20429;-70
2022/05/25 04:15:18;;;;;;;1.73;1.40;;;;;;;17.49;53.07;97307.84;5051826;28;20435;-71
2022/05/25 04:17:43;;;;;;;1.37;1.10;;;;;;;17.50;52.82;97310.28;5058109;28;20244;-71
2022/05/25 04:20:10;;;;;;;5.70;1.40;;;;;;;17.51;53.21;97305.81;5068885;28;21044;-71
2022/05/25 04:22:36;;;;;;;2.03;1.00;;;;;;;17.59;53.02;97308.28;5069513;28;20185;-72
2022/05/25 04:25:07;;;;;;;2.03;1.40;;;;;;;17.63;52.05;97314.03;5069989;28;20432;-69
2022/05/25 04:27:34;;;;;;;6.93;1.93;;;;;;;17.49;52.52;97306.00;5063591;28;20186;-74
2022/05/25 04:29:59;;;;;;;4.00;2.13;;;;;;;17.47;53.35;97317.81;5066691;28;20459;-70
2022/05/25 04:32:25;;;;;;;1.30;1.07;;;;;;;17.32;53.14;97328.50;5063746;28;20429;-70
2022/05/25 04:34:50;;;;;;;2.50;1.53;;;;;;;17.35;53.11;97326.28;5067574;28;20654;-70
2022/05/25 04:40:00;;;;;;;1.73;1.40;;;;;;;17.39;52.93;97339.16;5068719;28;20198;-71
2022/05/25 04:42:29;;;;;;;1.17;0.80;;;;;;;17.38;52.89;97338.31;5036473;28;20431;-70
2022/05/25 04:45:00;;;;;;;1.27;1.07;;;;;;;17.34;53.25;97332.59;5062820;28;20176;-72
2022/05/25 04:47:33;;;;;;;4.83;1.10;;;;;;;17.29;53.36;97337.63;5054434;28;20432;-71
2022/05/25 04:49:58;;;;;;;3.87;1.20;;;;;;;17.29;52.81;97348.22;5062989;28;20967;-73
2022/05/25 04:52:24;;;;;;;1.67;0.90;;;;;;;17.37;53.47;97357.06;5060986;28;20425;-70
2022/05/25 04:54:50;;;;;;;6.10;0.90;;;;;;;17.45;53.07;97359.56;5066786;28;20178;-71
2022/05/25 04:57:23;;;;;;;1.10;1.00;;;;;;;17.44;52.08;97369.34;5068721;28;20186;-71
2022/05/25 05:00:00;;;;;;;1.20;1.00;;;;;;;17.42;52.74;97366.06;5066186;28;20200;-71
2022/05/25 05:02:28;;;;;;;1.97;1.17;;;;;;;17.44;53.19;97368.50;5065885;28;20845;-72
2022/05/25 05:04:54;;;;;;;1.30;1.20;;;;;;;17.48;52.12;97375.06;5071169;28;20424;-71
2022/05/25 05:07:28;;;;;;;2.90;1.07;;;;;;;17.53;52.02;97372.66;5067990;28;20461;-71
2022/05/25 05:09:54;;;;;;;1.50;1.20;;;;;;;17.40;53.00;97372.53;5052763;28;20614;-71
2022/05/25 05:12:19;;;;;;;1.93;1.20;;;;;;;17.52;52.74;97381.59;5060821;28;20436;-71
2022/05/25 05:14:45;;;;;;;5.80;1.00;;;;;;;17.47;51.69;97387.47;5071123;28;20231;-71
2022/05/25 05:17:10;;;;;;;2.73;1.00;;;;;;;17.46;51.37;97387.69;5071086;28;20182;-71
2022/05/25 05:19:36;;;;;;;1.10;0.90;;;;;;;17.44;52.79;97395.84;5058757;28;20189;-72
2022/05/25 05:22:01;;;;;;;3.23;0.80;;;;;;;17.52;51.27;97394.84;5071842;28;20235;-69
2022/05/25 05:24:29;;;;;;;1.10;0.90;;;;;;;17.61;50.62;97400.84;5072521;28;20669;-71
2022/05/25 05:26:56;;;;;;;1.27;1.17;;;;;;;17.73;50.20;97401.13;5064745;28;20198;-70
2022/05/25 05:29:24;;;;;;;1.17;0.90;;;;;;;17.80;50.05;97394.03;5040689;28;20448;-70
2022/05/25 05:31:50;;;;;;;2.10;1.23;;;;;;;17.89;49.79;97398.19;5069436;28;20452;-70
2022/05/25 05:34:15;;;;;;;2.70;1.10;;;;;;;18.00;49.57;97399.50;5062470;28;20929;-70
2022/05/25 05:36:53;;;;;;;2.63;0.93;;;;;;;18.12;48.67;97391.81;5065409;28;20201;-70
2022/05/25 05:39:21;;;;;;;2.43;0.90;;;;;;;18.12;48.62;97402.44;5070319;28;20182;-71
2022/05/25 05:42:07;;;;;;;2.40;0.80;;;;;;;18.10;48.25;97405.25;5066792;28;20440;-71
2022/05/25 05:44:39;;;;;;;2.43;1.07;;;;;;;18.10;48.43;97412.41;5069665;28;20437;-70
2022/05/25 05:47:07;;;;;;;0.90;0.80;;;;;;;18.23;48.86;97415.13;5051707;28;20504;-71
2022/05/25 05:49:35;;;;;;;2.37;1.00;;;;;;;18.27;48.10;97418.22;5063234;28;20420;-71
2022/05/25 05:52:01;;;;;;;2.07;0.87;;;;;;;18.47;47.62;97410.34;5068051;28;20460;-70
2022/05/25 05:54:26;;;;;;;3.50;1.00;;;;;;;18.61;47.51;97413.88;5073123;28;20471;-72
2022/05/25 05:56:52;;;;;;;2.03;0.80;;;;;;;18.77;46.51;97419.84;5072964;28;20265;-70
2022/05/25 05:59:17;;;;;;;9.27;1.00;;;;;;;18.85;45.93;97428.44;5069015;28;20183;-71
2022/05/25 06:01:45;;;;;;;1.93;0.90;;;;;;;18.99;45.56;97431.19;5074336;28;20198;-71
2022/05/25 06:04:11;;;;;;;3.37;0.70;;;;;;;19.15;45.27;97430.78;5065670;28;20213;-71
2022/05/25 06:06:37;;;;;;;5.17;1.30;;;;;;;19.26;44.85;97426.72;5069626;28;20460;-69
2022/05/25 06:09:02;;;;;;;2.97;0.93;;;;;;;19.27;44.77;97435.53;5038759;28;20438;-69
2022/05/25 06:11:28;;;;;;;4.23;1.00;;;;;;;19.37;45.39;97435.94;5046391;28;20205;-71
2022/05/25 06:13:53;;;;;;;1.37;0.90;;;;;;;19.43;44.61;97431.66;5050846;28;20222;-72
2022/05/25 06:21:47;;;;;;;2.17;1.00;;;;;;;19.40;44.13;97440.84;5067660;28;20445;-70
2022/05/25 06:24:12;;;;;;;3.67;1.10;;;;;;;19.43;44.01;97444.94;5071743;28;20425;-71
2022/05/25 06:26:38;;;;;;;1.40;1.03;;;;;;;19.39;44.15;97443.69;5073712;28;20316;-71
2022/05/25 06:29:04;;;;;;;5.63;1.07;;;;;;;19.37;44.06;97461.69;5065566;28;20267;-70
2022/05/25 06:31:30;;;;;;;5.43;1.20;;;;;;;19.38;44.40;97458.84;5072329;28;20540;-70
2022/05/25 06:33:56;;;;;;;2.03;1.10;;;;;;;19.51;44.45;97454.56;5065759;28;20525;-71
2022/05/25 06:36:28;;;;;;;2.80;1.00;;;;;;;19.66;44.63;97465.78;5067967;28;20447;-70
2022/05/25 06:38:56;;;;;;;1.20;1.10;;;;;;;19.76;44.45;97465.38;5072491;28;20222;-71
2022/05/25 06:41:21;;;;;;;6.10;1.53;;;;;;;19.88;44.38;97476.25;5070847;28;20451;-72
2022/05/25 06:43:47;;;;;;;1.60;1.17;;;;;;;19.94;43.56;97472.78;5072066;28;20511;-69
2022/05/25 06:46:16;;;;;;;1.60;0.80;;;;;;;20.02;43.41;97475.22;5073238;28;20216;-71
2022/05/25 06:48:42;;;;;;;5.77;1.10;;;;;;;20.01;42.99;97473.59;5073208;28;20186;-70
2022/05/25 06:51:12;;;;;;;8.47;1.73;;;;;;;19.97;43.65;97472.34;5068797;28;20453;-70
2022/05/25 06:53:37;;;;;;;3.60;1.53;;;;;;;19.94;44.22;97472.78;5072763;28;20653;-68
2022/05/25 06:56:03;;;;;;;1.57;1.10;;;;;;;19.94;44.39;97472.78;5041568;28;20492;-71
2022/05/25 06:58:29;;;;;;;1.77;0.80;;;;;;;19.99;43.05;97480.97;5056890;28;20235;-69
2022/05/25 07:00:54;;;;;;;2.80;1.00;;;;;;;20.17;43.61;97474.16;5056025;28;20673;-70
2022/05/25 07:03:21;;;;;;;3.30;1.17;;;;;;;20.36;43.26;97486.63;5063104;28;20869;-70
2022/05/25 07:05:47;;;;;;;2.87;0.87;;;;;;;20.58;42.54;97488.22;5046286;28;20242;-72
2022/05/25 07:08:12;;;;;;;3.13;0.90;;;;;;;20.81;42.29;97493.06;5043033;28;20423;-71
2022/05/25 07:10:38;;;;;;;6.40;1.20;;;;;;;20.99;41.17;97487.03;5032376;28;20230;-71
2022/05/25 07:13:03;;;;;;;4.00;1.20;;;;;;;21.17;41.13;97491.69;5035002;28;20192;-71
2022/05/25 07:15:29;;;;;;;3.80;1.27;;;;;;;21.38;40.94;97495.03;5037276;28;20188;-72
2022/05/25 07:17:54;;;;;;;2.90;1.00;;;;;;;21.58;40.80;97494.91;5036788;28;20659;-70
2022/05/25 07:20:20;;;;;;;4.33;1.00;;;;;;;21.72;39.95;97492.97;5031058;28;20204;-72
2022/05/25 07:22:45;;;;;;;1.20;1.10;;;;;;;21.86;38.54;97489.19;5037962;28;20657;-71
2022/05/25 07:25:10;;;;;;;1.00;0.87;;;;;;;21.88;38.35;97491.63;5032268;28;20662;-71
2022/05/25 07:27:36;;;;;;;1.87;1.00;;;;;;;21.96;38.08;97493.19;5034819;28;20673;-72
2022/05/25 07:30:02;;;;;;;5.03;1.10;;;;;;;22.14;38.34;97495.91;5035130;28;20206;-71
2022/05/25 07:32:28;;;;;;;2.23;0.87;;;;;;;22.31;38.41;97501.50;5040667;28;20611;-70
2022/05/25 07:34:58;;;;;;;1.67;1.10;;;;;;;22.45;36.58;97496.06;5063960;28;20657;-70
2022/05/25 07:37:24;;;;;;;2.80;1.10;;;;;;;22.63;36.79;97504.06;5070410;28;20441;-70
2022/05/25 07:40:02;;;;;;;2.93;0.93;;;;;;;22.84;36.27;97505.47;5072479;28;20959;-70
2022/05/25 07:42:29;;;;;;;1.83;1.00;;;;;;;22.87;35.73;97501.56;5071139;28;20275;-71
2022/05/25 07:44:57;;;;;;;2.40;0.90;;;;;;;22.92;36.13;97503.53;5071367;28;20435;-71
2022/05/25 07:47:24;;;;;;;4.73;1.00;;;;;;;22.94;35.50;97512.13;5070658;28;20934;-71
2022/05/25 07:49:49;;;;;;;1.60;0.80;;;;;;;22.83;34.64;97506.50;5070921;28;20436;-71
2022/05/25 07:52:15;;;;;;;3.40;1.00;;;;;;;22.74;35.22;97505.19;5068995;28;20489;-71
2022/05/25 07:54:42;;;;;;;3.77;0.90;;;;;;;22.76;35.83;97516.47;5070792;28;20619;-71
2022/05/25 07:57:08;;;;;;;5.13;0.90;;;;;;;22.75;36.47;97509.47;5070121;28;20189;-72
2022/05/25 07:59:34;;;;;;;1.23;0.83;;;;;;;22.66;35.20;97519.66;5063450;28;20919;-72
2022/05/25 08:07:34;;;;;;;1.67;0.90;;;;;;;22.57;36.29;97514.81;5045097;28;20919;-69
2022/05/25 08:10:07;;;;;;;1.90;1.00;;;;;;;22.60;36.04;97519.72;5070443;28;20452;-70
2022/05/25 08:12:35;;;;;;;2.07;1.00;;;;;;;22.67;35.87;97515.94;5068147;28;20307;-70
2022/05/25 08:15:00;;;;;;;2.57;0.90;;;;;;;22.75;35.96;97512.16;5070047;28;20433;-70
2022/05/25 08:17:26;;;;;;;8.03;0.90;;;;;;;22.78;36.07;97514.38;5071410;28;20425;-70
2022/05/25 08:19:51;;;;;;;2.10;1.10;;;;;;;22.88;36.31;97511.16;5054331;28;20208;-70
2022/05/25 08:22:17;;;;;;;3.97;0.93;;;;;;;22.99;34.98;97501.59;5042633;28;20730;-71
2022/05/25 08:24:43;;;;;;;3.50;1.13;;;;;;;23.06;35.98;97510.31;5045529;28;20264;-70
2022/05/25 08:27:08;;;;;;;3.40;1.20;;;;;;;23.16;35.96;97513.31;5062566;28;20210;-69
2022/05/25 08:29:34;;;;;;;1.53;0.80;;;;;;;23.11;34.12;97512.34;5061486;28;20182;-70
2022/05/25 08:31:59;;;;;;;3.20;1.17;;;;;;;23.06;34.19;97501.50;5062955;28;20189;-69
2022/05/25 08:34:26;;;;;;;2.30;0.97;;;;;;;23.17;33.65;97504.25;5070894;28;20212;-70
2022/05/25 08:36:52;;;;;;;2.87;1.00;;;;;;;23.22;32.68;97502.75;5061335;28;20183;-69
2022/05/25 08:39:18;;;;;;;3.00;0.80;;;;;;;23.33;33.56;97507.31;5071253;28;20437;-70
2022/05/25 08:41:44;;;;;;;2.93;0.97;;;;;;;23.50;33.85;97498.66;5068435;28;20198;-70
2022/05/25 08:44:11;;;;;;;2.20;0.80;;;;;;;23.62;33.58;97494.16;5071133;28;20935;-70
2022/05/25 08:46:38;;;;;;;5.97;1.07;;;;;;;23.66;32.38;97497.19;5070803;28;20464;-70
2022/05/25 08:49:12;;;;;;;4.13;0.90;;;;;;;23.81;31.74;97494.09;5070751;28;20433;-70
2022/05/25 08:51:57;;;;;;;2.90;0.90;;;;;;;23.87;31.46;97499.34;5060453;28;20605;-70
2022/05/25 08:54:26;;;;;;;2.30;0.70;;;;;;;23.83;31.42;97494.66;5043505;28;20961;-72
2022/05/25 08:57:08;;;;;;;1.50;0.90;;;;;;;24.02;32.22;97496.22;5019873;28;20427;-72
2022/05/25 09:00:02;;;;;;;1.83;0.80;;;;;;;24.45;32.76;97493.41;5040045;28;20992;-70
2022/05/25 09:02:32;;;;;;;1.13;0.80;;;;;;;24.64;33.34;97489.53;5065167;28;20932;-69
2022/05/25 09:05:16;;;;;;;2.50;1.10;;;;;;;25.04;32.26;97492.47;5049465;28;20454;-71
2022/05/25 09:07:50;;;;;;;1.60;0.87;;;;;;;24.93;31.19;97497.66;5068112;28;20522;-70
2022/05/25 09:10:17;;;;;;;4.70;0.80;;;;;;;24.78;31.97;97492.78;5070143;28;20450;-70
2022/05/25 09:13:14;;;;;;;1.40;0.80;;;;;;;24.61;32.36;97491.88;5064375;28;20510;-70
2022/05/25 09:18:33;;;;;;;1.20;0.80;;;;;;;24.02;33.11;97493.56;5070407;28;20547;-70
2022/05/25 09:21:01;;;;;;;1.10;0.90;;;;;;;23.88;33.16;97498.25;5070919;28;20973;-71
2022/05/25 09:23:28;;;;;;;5.80;0.80;;;;;;;23.64;33.57;97497.44;5070104;28;20586;-71
2022/05/25 09:25:54;;;;;;;2.87;0.83;;;;;;;23.45;34.53;97502.84;5069564;28;20456;-71
2022/05/25 09:28:23;;;;;;;2.70;0.77;;;;;;;23.41;33.77;97507.03;5073492;28;20515;-71
2022/05/25 09:30:54;;;;;;;2.60;1.23;;;;;;;23.30;33.53;97513.16;5050356;28;20582;-71
2022/05/25 09:33:26;;;;;;;4.60;1.00;;;;;;;23.13;33.58;97513.75;5069028;28;20958;-71
2022/05/25 09:35:55;;;;;;;2.07;1.00;;;;;;;23.05;34.11;97526.59;5060126;28;20431;-70
2022/05/25 09:38:42;;;;;;;1.53;0.60;;;;;;;22.99;33.98;97528.31;5072943;28;20436;-72
2022/05/25 09:41:11;;;;;;;2.30;0.90;;;;;;;22.96;34.12;97529.59;5071929;28;20982;-71
2022/05/25 09:43:38;;;;;;;1.00;0.70;;;;;;;22.94;34.02;97530.81;5074636;28;20421;-70
2022/05/25 09:46:11;;;;;;;2.90;0.80;;;;;;;23.06;33.90;97529.03;5072431;28;20475;-70
2022/05/25 09:48:51;;;;;;;1.20;0.80;;;;;;;23.16;34.04;97524.00;5066404;28;20429;-72
2022/05/25 09:51:23;;;;;;;2.80;0.80;;;;;;;23.28;34.25;97529.41;5071368;28;20436;-70
2022/05/25 09:54:00;;;;;;;3.60;1.10;;;;;;;23.30;34.30;97531.88;5074223;28;20432;-71
2022/05/25 09:56:36;;;;;;;5.67;0.90;;;;;;;23.21;34.96;97523.34;5065422;28;20460;-70
2022/05/25 09:59:08;;;;;;;8.93;1.20;;;;;;;23.24;34.16;97530.09;5055445;28;20436;-70
2022/05/25 10:01:44;;;;;;;5.20;1.00;;;;;;;23.27;33.21;97526.97;5073547;28;20820;-72
2022/05/25 10:04:14;;;;;;;2.40;0.80;;;;;;;23.39;32.54;97518.97;5061884;28;20924;-72
2022/05/25 10:06:50;;;;;;;1.80;0.93;;;;;;;23.78;32.00;97525.59;5060979;28;20461;-70
2022/05/25 10:09:29;;;;;;;4.43;0.80;;;;;;;24.29;31.77;97524.38;5069021;28;20870;-71
2022/05/25 10:11:59;;;;;;;2.10;0.93;;;;;;;24.49;32.26;97518.66;5071924;28;20530;-71
2022/05/25 10:14:30;;;;;;;4.67;0.83;;;;;;;24.83;30.91;97513.50;5073870;28;20772;-71
2022/05/25 10:17:09;;;;;;;1.10;0.87;;;;;;;24.96;29.56;97518.59;5066035;28;20441;-71
2022/05/25 10:19:45;;;;;;;2.53;0.80;;;;;;;24.90;29.80;97516.88;5067239;28;20416;-73
2022/05/25 10:22:44;;;;;;;2.67;1.03;;;;;;;24.87;29.56;97514.66;5074434;28;20436;-70
2022/05/25 10:25:30;;;;;;;1.77;0.87;;;;;;;24.97;28.83;97516.75;5072850;28;20428;-69
2022/05/25 10:27:57;;;;;;;1.67;0.83;;;;;;;24.59;29.43;97518.88;5069421;28;20529;-71
2022/05/25 10:36:48;;;;;;;1.97;0.90;;;;;;;23.80;30.80;97527.25;5069109;28;20583;-70
2022/05/25 10:39:17;;;;;;;4.63;1.03;;;;;;;23.72;31.43;97525.72;5070194;28;20435;-70
2022/05/25 10:41:43;;;;;;;8.93;1.20;;;;;;;23.64;32.57;97526.84;5074916;28;20444;-70
2022/05/25 10:44:18;;;;;;;4.47;1.07;;;;;;;23.69;32.46;97515.47;5074163;28;20456;-71
2022/05/25 10:46:57;;;;;;;3.37;0.90;;;;;;;23.96;32.06;97513.19;5071666;28;21052;-70
2022/05/25 10:49:36;;;;;;;2.33;0.90;;;;;;;24.51;32.05;97514.69;5073167;28;20602;-72
2022/05/25 10:52:08;;;;;;;4.70;2.60;;;;;;;24.79;31.35;97510.50;5070009;28;20432;-71
2022/05/25 10:54:47;;;;;;;10.90;4.37;;;;;;;25.04;29.94;97513.94;5073399;28;21002;-69
2022/05/25 10:57:50;;;;;;;1.67;0.90;;;;;;;24.98;28.09;97513.03;5064570;28;20804;-70
2022/05/25 11:00:28;;;;;;;5.87;0.77;;;;;;;24.61;28.93;97510.63;5066927;28;20452;-70
2022/05/25 11:03:06;;;;;;;3.13;0.80;;;;;;;24.81;29.87;97510.28;5072740;28;20443;-71
2022/05/25 11:05:44;;;;;;;3.10;0.70;;;;;;;24.84;29.53;97515.97;5058187;28;20456;-70
2022/05/25 11:08:34;;;;;;;2.70;0.90;;;;;;;25.06;30.30;97515.31;5038948;28;20419;-71
2022/05/25 11:11:07;;;;;;;4.70;1.83;;;;;;;25.40;31.03;97515.41;5035889;28;20439;-71
2022/05/25 11:13:48;;;;;;;11.30;6.93;;;;;;;25.60;28.97;97504.25;5033058;28;20953;-70
2022/05/25 11:16:40;;;;;;;1.93;0.90;;;;;;;25.65;27.44;97505.41;5037624;28;21151;-69
2022/05/25 11:19:39;;;;;;;2.80;0.93;;;;;;;25.97;28.58;97504.81;5031873;28;20426;-71
2022/05/25 11:22:32;;;;;;;1.57;0.73;;;;;;;26.28;27.46;97506.13;5032472;28;20871;-71
2022/05/25 11:25:18;;;;;;;1.10;0.73;;;;;;;26.58;27.77;97504.13;5071424;28;20977;-70
2022/05/25 11:27:50;;;;;;;1.50;0.87;;;;;;;26.85;27.50;97511.44;5071186;28;20573;-69
2022/05/25 11:30:28;;;;;;;1.47;0.90;;;;;;;26.88;26.83;97505.56;5066805;28;20499;-71
2022/05/25 11:33:23;;;;;;;2.90;0.70;;;;;;;26.78;26.23;97504.41;5070893;28;20934;-69
2022/05/25 11:36:22;;;;;;;1.33;0.90;;;;;;;26.53;26.59;97502.16;5066128;28;20827;-71
2022/05/25 11:39:13;;;;;;;2.73;0.80;;;;;;;26.42;27.68;97503.91;5072358;28;20447;-70
2022/05/25 11:41:58;;;;;;;2.17;1.00;;;;;;;26.32;26.74;97506.47;5061463;28;21151;-70
2022/05/25 11:44:43;;;;;;;3.00;0.97;;;;;;;26.48;27.05;97500.22;5072026;28;20444;-70
2022/05/25 11:47:28;;;;;;;1.60;0.73;;;;;;;26.81;26.71;97503.91;5065798;28;20576;-69
2022/05/25 11:50:00;;;;;;;1.80;1.07;;;;;;;27.11;26.44;97512.56;5065922;28;20816;-70
2022/05/25 11:52:35;;;;;;;0.93;0.70;;;;;;;27.43;25.77;97503.75;5069163;28;20434;-70
2022/05/25 11:55:09;;;;;;;5.33;0.80;;;;;;;27.52;25.01;97509.50;5072469;28;20473;-70
2022/05/25 11:57:43;;;;;;;3.37;0.80;;;;;;;27.70;24.54;97506.47;5049136;28;20425;-70
2022/05/25 12:00:17;;;;;;;1.53;0.63;;;;;;;27.53;24.94;97503.06;5057577;28;20471;-69
2022/05/25 12:03:38;;;;;;;3.10;0.70;;;;;;;27.34;26.00;97500.72;5071820;28;20429;-70
2022/05/25 12:06:16;;;;;;;3.10;0.70;;;;;;;26.98;26.07;97508.38;5034483;28;20467;-70
2022/05/25 12:09:18;;;;;;;0.90;0.60;;;;;;;26.71;26.32;97519.88;5059402;28;20420;-70
2022/05/25 12:11:56;;;;;;;1.87;0.93;;;;;;;26.46;27.42;97517.66;5072115;28;20440;-70
2022/05/25 12:14:34;;;;;;;1.30;0.80;;;;;;;26.15;26.97;97517.22;5070420;28;20428;-71
2022/05/25 12:17:10;;;;;;;1.60;0.80;;;;;;;26.05;28.80;97515.16;5071784;28;20793;-71